Time;durP1;ratioP1;P1;durP2;ratioP2;P2;SDS_P1;SDS_P2;PMS_P1;PMS_P2;Temp;Humidity;BMP_temperature;BMP_pressure;BME280_temperature;BME280_humidity;BME280_pressure;Samples;Min_cycle;Max_cycle;Signal;HPM_P1;HPM_P2
2022/12/18 00:00:27;;;;;;;29.15;14.55;;;-1.90;87.50;;;;;;5113629;28;20184;-68
2022/12/18 00:02:54;;;;;;;25.90;12.90;;;-2.00;87.70;;;;;;5104526;28;20691;-68
2022/12/18 00:05:21;;;;;;;33.20;14.73;;;-2.00;88.40;;;;;;5092569;28;20637;-68
2022/12/18 00:07:49;;;;;;;31.98;16.40;;;-2.10;88.50;;;;;;5098672;28;20249;-68
2022/12/18 00:10:17;;;;;;;34.42;18.00;;;-2.20;88.60;;;;;;5113142;28;20197;-67
2022/12/18 00:12:45;;;;;;;30.75;16.40;;;-2.20;88.70;;;;;;5106128;28;20182;-68
2022/12/18 00:15:12;;;;;;;34.40;17.48;;;-2.20;88.80;;;;;;5091869;28;20201;-67
2022/12/18 00:17:40;;;;;;;37.63;18.85;;;-2.20;88.30;;;;;;5097160;28;20191;-68
2022/12/18 00:20:11;;;;;;;36.08;17.45;;;-2.40;88.60;;;;;;5112806;28;20223;-68
2022/12/18 00:22:39;;;;;;;35.50;16.55;;;-2.50;89.70;;;;;;5108254;28;20181;-68
2022/12/18 00:25:08;;;;;;;38.90;17.30;;;-2.50;89.80;;;;;;5092104;28;20208;-68
2022/12/18 00:27:44;;;;;;;33.60;16.45;;;-2.50;90.00;;;;;;5095472;28;20552;-68
2022/12/18 00:30:13;;;;;;;39.38;19.55;;;-2.50;89.80;;;;;;5112851;28;20188;-67
2022/12/18 00:32:42;;;;;;;41.20;16.88;;;-2.50;89.60;;;;;;5110578;28;20185;-67
2022/12/18 00:35:11;;;;;;;38.63;18.52;;;-2.60;90.00;;;;;;5100863;28;20176;-68
2022/12/18 00:37:39;;;;;;;35.22;18.38;;;-2.50;90.20;;;;;;5112604;28;20188;-69
2022/12/18 00:40:08;;;;;;;32.95;18.45;;;-2.40;90.00;;;;;;5112505;28;20203;-68
2022/12/18 00:45:26;;;;;;;30.75;16.98;;;-2.40;89.50;;;;;;5109375;28;20234;-68
2022/12/18 00:47:57;;;;;;;36.30;18.35;;;-2.40;89.60;;;;;;5092121;28;20675;-68
2022/12/18 00:50:27;;;;;;;39.25;18.85;;;-2.50;90.00;;;;;;5100036;28;20192;-68
2022/12/18 00:52:55;;;;;;;37.50;18.95;;;-2.50;90.10;;;;;;5112335;28;20195;-68
2022/12/18 00:55:25;;;;;;;37.72;17.55;;;-2.40;90.10;;;;;;5104661;28;20200;-68
2022/12/18 00:57:53;;;;;;;35.72;18.15;;;-2.40;90.20;;;;;;5092041;28;20605;-68
2022/12/18 01:00:22;;;;;;;35.88;20.23;;;-2.40;90.10;;;;;;5098090;28;20188;-69
2022/12/18 01:02:50;;;;;;;42.33;18.50;;;-2.40;90.00;;;;;;5112259;28;20184;-69
2022/12/18 01:05:17;;;;;;;43.53;18.92;;;-2.40;90.20;;;;;;5105998;28;20604;-68
2022/12/18 01:07:44;;;;;;;32.70;16.88;;;-2.30;90.20;;;;;;5092338;28;20189;-69
2022/12/18 01:10:13;;;;;;;38.85;18.70;;;-2.30;90.10;;;;;;5091322;28;20181;-68
2022/12/18 01:12:41;;;;;;;36.85;18.65;;;-2.30;89.60;;;;;;5092380;28;20189;-68
2022/12/18 01:15:11;;;;;;;44.67;21.77;;;-2.30;89.30;;;;;;5091746;28;20189;-68
2022/12/18 01:17:40;;;;;;;40.08;22.15;;;-2.30;89.20;;;;;;5110602;28;20531;-68
2022/12/18 01:20:13;;;;;;;34.22;17.80;;;-2.20;88.90;;;;;;5111940;28;20188;-68
2022/12/18 01:22:41;;;;;;;34.05;16.42;;;-2.20;88.80;;;;;;5092309;28;20197;-68
2022/12/18 01:25:11;;;;;;;36.13;18.58;;;-2.10;88.40;;;;;;5091599;28;20217;-68
2022/12/18 01:27:40;;;;;;;32.40;19.23;;;-2.10;88.00;;;;;;5112677;28;20180;-68
2022/12/18 01:30:12;;;;;;;27.33;16.23;;;-2.10;87.60;;;;;;5116064;28;20283;-69
2022/12/18 01:32:41;;;;;;;28.63;15.75;;;-2.20;87.10;;;;;;5097073;28;20263;-68
2022/12/18 01:35:09;;;;;;;30.52;15.82;;;-2.20;87.40;;;;;;5102126;28;20259;-68
2022/12/18 01:37:38;;;;;;;27.25;15.85;;;-2.30;87.10;;;;;;5115873;28;20646;-68
2022/12/18 01:40:06;;;;;;;30.20;15.45;;;-2.30;87.30;;;;;;5109488;28;20249;-68
2022/12/18 01:42:36;;;;;;;34.13;14.90;;;-2.30;86.20;;;;;;5095498;28;20204;-68
2022/12/18 01:45:23;;;;;;;25.83;13.75;;;-2.30;85.90;;;;;;5115746;28;20223;-68
2022/12/18 01:47:57;;;;;;;34.70;16.20;;;-2.40;85.30;;;;;;5113095;28;20269;-68
2022/12/18 01:50:29;;;;;;;29.88;15.38;;;-2.50;85.20;;;;;;5095182;28;20189;-67
2022/12/18 01:53:06;;;;;;;32.13;16.13;;;-2.70;85.50;;;;;;5097016;28;20554;-68
2022/12/18 01:55:51;;;;;;;29.83;15.05;;;-2.80;86.70;;;;;;5115717;28;20187;-68
2022/12/18 01:58:19;;;;;;;31.33;16.45;;;-2.80;87.10;;;;;;5101743;28;20227;-68
2022/12/18 02:00:48;;;;;;;32.17;15.90;;;-2.80;87.10;;;;;;5094744;28;20601;-68
2022/12/18 02:03:17;;;;;;;25.80;14.30;;;-2.80;87.50;;;;;;5107182;28;20644;-68
2022/12/18 02:05:52;;;;;;;30.92;15.50;;;-2.80;87.70;;;;;;5074689;28;20650;-68
2022/12/18 02:08:25;;;;;;;34.55;14.93;;;-2.80;88.10;;;;;;5074037;28;20201;-68
2022/12/18 02:11:05;;;;;;;29.55;16.13;;;-2.90;88.40;;;;;;5074412;28;20174;-68
2022/12/18 02:13:42;;;;;;;35.88;16.90;;;-2.90;88.50;;;;;;5074469;28;20521;-68
2022/12/18 02:16:20;;;;;;;34.05;17.00;;;-2.90;89.00;;;;;;5074162;28;20232;-68
2022/12/18 02:18:52;;;;;;;31.33;15.90;;;-2.90;89.30;;;;;;5073898;28;20186;-68
2022/12/18 02:21:32;;;;;;;30.55;16.15;;;-2.90;89.50;;;;;;5074344;28;20201;-68
2022/12/18 02:24:15;;;;;;;30.13;16.25;;;-2.90;89.40;;;;;;5054276;28;20190;-68
2022/12/18 02:26:48;;;;;;;29.83;14.55;;;-2.90;89.40;;;;;;5073538;28;20318;-69
2022/12/18 02:29:22;;;;;;;35.97;16.85;;;-2.80;89.60;;;;;;5074578;28;20221;-68
2022/12/18 02:31:55;;;;;;;34.13;15.57;;;-2.80;89.40;;;;;;5073484;28;20217;-68
2022/12/18 02:34:26;;;;;;;32.83;16.23;;;-2.80;89.40;;;;;;5074121;28;20656;-68
2022/12/18 02:37:02;;;;;;;30.30;15.77;;;-2.80;89.20;;;;;;5064453;28;20579;-68
2022/12/18 02:39:31;;;;;;;31.48;15.77;;;-2.80;89.50;;;;;;5073046;28;20203;-70
2022/12/18 02:42:07;;;;;;;31.88;16.00;;;-2.70;90.00;;;;;;5053905;28;20190;-68
2022/12/18 02:44:35;;;;;;;33.55;16.23;;;-2.70;88.90;;;;;;5060769;28;20185;-69
2022/12/18 02:47:03;;;;;;;34.45;17.08;;;-2.70;88.00;;;;;;5073631;28;20224;-69
2022/12/18 02:49:45;;;;;;;33.83;16.63;;;-2.80;87.00;;;;;;5073488;28;20560;-68
2022/12/18 02:52:35;;;;;;;31.23;17.00;;;-2.80;86.70;;;;;;5073928;28;20197;-69
2022/12/18 02:55:16;;;;;;;25.27;14.20;;;-2.90;86.40;;;;;;5073325;28;20189;-68
2022/12/18 02:57:51;;;;;;;32.22;14.95;;;-3.00;85.70;;;;;;5073728;28;20247;-68
2022/12/18 03:00:22;;;;;;;26.98;14.38;;;-3.10;85.40;;;;;;5073240;28;20194;-69
2022/12/18 03:02:55;;;;;;;34.75;17.83;;;-3.30;86.40;;;;;;5073860;28;20189;-67
2022/12/18 03:05:29;;;;;;;35.17;17.10;;;-3.40;86.00;;;;;;5107866;28;20559;-68
2022/12/18 03:08:03;;;;;;;31.08;14.75;;;-3.60;87.10;;;;;;5114136;28;20192;-67
2022/12/18 03:10:40;;;;;;;31.98;14.73;;;-3.70;88.30;;;;;;5102012;28;20188;-68
2022/12/18 03:13:18;;;;;;;36.15;15.85;;;-3.80;89.30;;;;;;5093876;28;20246;-69
2022/12/18 03:15:49;;;;;;;33.35;14.85;;;-3.90;89.80;;;;;;5093605;28;20710;-68
2022/12/18 03:18:20;;;;;;;28.02;14.50;;;-4.00;90.50;;;;;;5093070;28;20594;-69
2022/12/18 03:20:50;;;;;;;33.47;16.60;;;-3.90;90.70;;;;;;5113961;28;20619;-68
2022/12/18 03:23:22;;;;;;;32.63;16.77;;;-3.90;90.70;;;;;;5113130;28;20188;-68
2022/12/18 03:25:53;;;;;;;34.55;14.75;;;-4.00;91.00;;;;;;5093131;28;20231;-68
2022/12/18 03:28:23;;;;;;;33.50;13.38;;;-4.10;91.50;;;;;;5093145;28;20274;-69
2022/12/18 03:30:57;;;;;;;31.02;15.57;;;-4.30;91.80;;;;;;5093258;28;20639;-68
2022/12/18 03:33:30;;;;;;;32.67;14.70;;;-4.50;92.30;;;;;;5093022;28;20276;-69
2022/12/18 03:35:57;;;;;;;33.38;16.88;;;-4.60;92.80;;;;;;5093306;28;20196;-68
2022/12/18 03:38:25;;;;;;;32.53;14.32;;;-4.60;93.20;;;;;;5092984;28;20196;-68
2022/12/18 03:41:00;;;;;;;39.53;17.38;;;-4.60;93.40;;;;;;5092956;28;20185;-68
2022/12/18 03:43:52;;;;;;;33.17;16.58;;;-4.60;93.30;;;;;;5100490;28;20188;-68
2022/12/18 03:46:40;;;;;;;29.70;14.18;;;-4.60;93.30;;;;;;5113536;28;20223;-68
2022/12/18 03:49:18;;;;;;;32.58;13.85;;;-4.60;93.20;;;;;;5101690;28;20268;-68
2022/12/18 03:51:53;;;;;;;33.85;14.30;;;-4.60;93.00;;;;;;5113459;28;20269;-68
2022/12/18 03:54:27;;;;;;;29.52;13.38;;;-4.60;93.10;;;;;;5099027;28;20269;-68
2022/12/18 03:56:59;;;;;;;29.50;13.32;;;-4.60;92.90;;;;;;5092785;28;20246;-68
2022/12/18 03:59:30;;;;;;;30.08;13.68;;;-4.50;92.70;;;;;;5106797;28;20650;-68
2022/12/18 04:02:02;;;;;;;31.77;14.68;;;-4.50;92.20;;;;;;5113164;28;20193;-68
2022/12/18 04:04:31;;;;;;;28.05;12.70;;;-4.50;91.90;;;;;;5098530;28;20225;-68
2022/12/18 04:07:00;;;;;;;32.97;15.88;;;-4.50;91.80;;;;;;5092941;28;20602;-68
2022/12/18 04:09:28;;;;;;;37.38;14.15;;;-4.60;91.70;;;;;;5105863;28;20586;-67
2022/12/18 04:11:56;;;;;;;30.63;14.48;;;-4.60;91.60;;;;;;5112909;28;20208;-67
2022/12/18 04:14:23;;;;;;;27.20;13.48;;;-4.60;91.70;;;;;;5100560;28;20195;-68
2022/12/18 04:16:58;;;;;;;35.97;13.95;;;-4.50;91.60;;;;;;5092315;28;20292;-69
2022/12/18 04:19:26;;;;;;;32.60;13.85;;;-4.50;91.30;;;;;;5092479;28;20288;-67
2022/12/18 04:21:57;;;;;;;29.92;14.48;;;-4.40;91.20;;;;;;5092478;28;20534;-68
2022/12/18 04:24:25;;;;;;;32.92;14.25;;;-4.40;91.10;;;;;;5092692;28;20185;-68
2022/12/18 04:26:55;;;;;;;31.20;12.68;;;-4.30;90.80;;;;;;5092194;28;20221;-68
2022/12/18 04:29:23;;;;;;;25.55;12.40;;;-4.30;90.60;;;;;;5111261;28;20191;-68
2022/12/18 04:31:52;;;;;;;29.15;14.45;;;-4.30;90.50;;;;;;5113123;28;20223;-68
2022/12/18 04:34:22;;;;;;;28.35;13.90;;;-4.30;90.50;;;;;;5094345;28;20635;-68
2022/12/18 04:36:55;;;;;;;33.75;15.23;;;-4.20;90.50;;;;;;5092502;28;20193;-68
2022/12/18 04:39:22;;;;;;;38.25;16.10;;;-4.10;90.40;;;;;;5109617;28;20192;-68
2022/12/18 04:41:50;;;;;;;28.30;14.07;;;-4.10;90.40;;;;;;5112656;28;20261;-68
2022/12/18 04:44:17;;;;;;;32.65;14.63;;;-4.10;90.20;;;;;;5095971;28;20764;-68
2022/12/18 04:46:45;;;;;;;27.20;12.70;;;-4.10;90.10;;;;;;5095319;28;20243;-68
2022/12/18 04:49:13;;;;;;;32.03;14.05;;;-4.10;90.00;;;;;;5112867;28;20241;-68
2022/12/18 04:51:42;;;;;;;23.00;12.50;;;-4.10;89.80;;;;;;5110425;28;20195;-69
2022/12/18 04:54:12;;;;;;;27.67;12.18;;;-4.00;89.80;;;;;;5092021;28;20276;-69
2022/12/18 04:56:40;;;;;;;27.42;13.75;;;-4.10;89.60;;;;;;5093545;28;20189;-69
2022/12/18 04:59:07;;;;;;;30.67;16.25;;;-4.10;89.80;;;;;;5112757;28;20230;-68
2022/12/18 05:01:36;;;;;;;29.73;13.25;;;-4.10;90.00;;;;;;5098489;28;20212;-68
2022/12/18 05:04:04;;;;;;;26.38;12.60;;;-4.00;89.80;;;;;;5107075;28;20299;-68
2022/12/18 05:06:31;;;;;;;28.60;14.27;;;-4.00;89.50;;;;;;5116451;28;20310;-69
2022/12/18 05:09:00;;;;;;;23.63;12.77;;;-4.00;89.10;;;;;;5106592;28;20682;-68
2022/12/18 05:11:28;;;;;;;20.50;11.20;;;-4.00;89.20;;;;;;5096470;28;20193;-68
2022/12/18 05:13:55;;;;;;;27.25;11.80;;;-3.90;88.90;;;;;;5104372;28;20287;-68
2022/12/18 05:16:23;;;;;;;25.73;12.73;;;-4.00;88.80;;;;;;5116264;28;20668;-68
2022/12/18 05:18:50;;;;;;;30.08;14.43;;;-4.00;89.60;;;;;;5108915;28;20192;-68
2022/12/18 05:21:23;;;;;;;30.92;13.23;;;-4.00;89.90;;;;;;5096318;28;20248;-68
2022/12/18 05:23:50;;;;;;;36.20;14.82;;;-3.90;90.10;;;;;;5100887;28;20639;-69
2022/12/18 05:26:20;;;;;;;21.90;12.70;;;-3.90;90.10;;;;;;5095265;28;20213;-67
2022/12/18 05:28:50;;;;;;;29.40;14.48;;;-3.80;90.00;;;;;;5114693;28;20189;-68
2022/12/18 05:31:21;;;;;;;27.88;14.05;;;-3.80;89.60;;;;;;5102641;28;20185;-68
2022/12/18 05:33:51;;;;;;;33.20;14.43;;;-3.80;89.40;;;;;;5116447;28;20196;-68
2022/12/18 05:36:19;;;;;;;28.52;14.45;;;-3.80;89.00;;;;;;5116237;28;20188;-68
2022/12/18 05:38:46;;;;;;;26.23;14.48;;;-3.80;89.60;;;;;;5115910;28;20185;-68
2022/12/18 05:41:14;;;;;;;29.17;14.10;;;-3.80;88.50;;;;;;5115969;28;20202;-68
2022/12/18 05:43:43;;;;;;;27.95;14.15;;;-3.80;88.40;;;;;;5099892;28;20200;-68
2022/12/18 05:46:13;;;;;;;28.92;14.50;;;-3.80;88.80;;;;;;5095610;28;20213;-69
2022/12/18 05:48:41;;;;;;;36.22;15.75;;;-3.80;89.40;;;;;;5110664;28;20192;-68
2022/12/18 05:51:10;;;;;;;30.63;14.43;;;-3.70;89.40;;;;;;5116098;28;20206;-68
2022/12/18 05:53:40;;;;;;;40.45;18.77;;;-3.70;89.10;;;;;;5115406;28;20546;-68
2022/12/18 05:56:10;;;;;;;30.65;15.50;;;-3.70;88.60;;;;;;5115853;28;20191;-69
2022/12/18 05:58:39;;;;;;;29.95;16.83;;;-3.70;88.30;;;;;;5096044;28;20275;-69
2022/12/18 06:01:10;;;;;;;32.60;14.07;;;-3.80;87.60;;;;;;5095580;28;20188;-68
2022/12/18 06:03:38;;;;;;;33.35;15.00;;;-3.80;87.50;;;;;;5108529;28;20212;-67
2022/12/18 06:06:13;;;;;;;32.50;13.75;;;-3.90;87.80;;;;;;5095384;28;20193;-68
2022/12/18 06:08:40;;;;;;;41.45;15.52;;;-3.90;88.50;;;;;;5114014;28;20176;-68
2022/12/18 06:11:08;;;;;;;31.45;15.18;;;-3.90;88.30;;;;;;5114146;28;20192;-68
2022/12/18 06:13:35;;;;;;;30.10;14.02;;;-3.80;89.00;;;;;;5094109;28;20611;-68
2022/12/18 06:16:04;;;;;;;31.98;13.82;;;-3.80;90.00;;;;;;5102385;28;20180;-68
2022/12/18 06:18:36;;;;;;;31.23;15.68;;;-3.90;89.20;;;;;;5115729;28;20630;-67
2022/12/18 06:21:03;;;;;;;34.97;14.57;;;-3.90;88.80;;;;;;5107969;28;20212;-68
2022/12/18 06:23:31;;;;;;;32.42;14.68;;;-4.00;89.90;;;;;;5094962;28;20582;-68
2022/12/18 06:25:58;;;;;;;39.50;17.73;;;-3.90;90.10;;;;;;5100098;28;20183;-68
2022/12/18 06:28:26;;;;;;;35.08;14.30;;;-4.00;90.00;;;;;;5104737;28;20189;-67
2022/12/18 06:30:53;;;;;;;40.55;16.10;;;-4.00;90.30;;;;;;5098692;28;20185;-67
2022/12/18 06:33:20;;;;;;;31.42;13.70;;;-3.90;90.40;;;;;;5115156;28;20188;-67
2022/12/18 06:35:50;;;;;;;32.25;14.07;;;-3.90;90.30;;;;;;5111288;28;20242;-67
2022/12/18 06:38:17;;;;;;;29.50;14.98;;;-3.80;90.00;;;;;;5094547;28;20197;-67
2022/12/18 06:40:57;;;;;;;29.70;14.20;;;-3.90;89.40;;;;;;5108566;28;20189;-67
2022/12/18 06:43:29;;;;;;;28.50;13.00;;;-3.80;89.50;;;;;;5115047;28;20194;-67
2022/12/18 06:46:00;;;;;;;28.73;13.32;;;-3.90;90.00;;;;;;5098854;28;20189;-67
2022/12/18 06:48:28;;;;;;;38.83;16.85;;;-3.80;90.10;;;;;;5094279;28;20209;-67
2022/12/18 06:50:57;;;;;;;34.03;17.00;;;-3.80;90.10;;;;;;5108431;28;20241;-67
2022/12/18 06:53:30;;;;;;;34.85;14.95;;;-3.80;90.00;;;;;;5114794;28;20191;-67
2022/12/18 06:56:01;;;;;;;41.15;16.52;;;-3.70;90.10;;;;;;5105233;28;20200;-68
2022/12/18 06:58:33;;;;;;;37.70;15.55;;;-3.70;89.80;;;;;;5111327;28;20554;-68
2022/12/18 07:01:02;;;;;;;31.05;15.48;;;-3.60;90.00;;;;;;5093384;28;20258;-67
2022/12/18 07:03:29;;;;;;;36.33;16.42;;;-3.60;90.10;;;;;;5095758;28;21811;-67
2022/12/18 07:05:58;;;;;;;30.08;15.00;;;-3.50;89.70;;;;;;5095354;28;20201;-67
2022/12/18 07:08:26;;;;;;;32.17;15.43;;;-3.50;89.50;;;;;;5094249;28;20221;-68
2022/12/18 07:10:53;;;;;;;36.28;14.68;;;-3.40;89.50;;;;;;5103071;28;20192;-67
2022/12/18 07:13:21;;;;;;;36.30;16.42;;;-3.40;89.60;;;;;;5093323;28;20188;-70
2022/12/18 07:15:48;;;;;;;43.05;18.20;;;-3.30;89.40;;;;;;5093621;28;20246;-67
2022/12/18 07:18:17;;;;;;;33.67;14.82;;;-3.30;89.40;;;;;;5092902;28;20208;-68
2022/12/18 07:20:48;;;;;;;33.95;14.25;;;-3.30;87.90;;;;;;5095971;28;20221;-68
2022/12/18 07:23:22;;;;;;;32.35;14.95;;;-3.40;87.70;;;;;;5093490;28;20193;-68
2022/12/18 07:25:50;;;;;;;34.90;17.35;;;-3.30;88.70;;;;;;5096741;28;20181;-68
2022/12/18 07:28:18;;;;;;;32.10;15.63;;;-3.30;88.70;;;;;;5093207;28;20576;-67
2022/12/18 07:30:46;;;;;;;35.30;16.52;;;-3.30;88.30;;;;;;5093683;28;20188;-67
2022/12/18 07:33:18;;;;;;;32.53;16.20;;;-3.20;88.30;;;;;;5110363;28;20325;-67
2022/12/18 07:35:45;;;;;;;28.48;14.57;;;-3.10;88.30;;;;;;5095297;28;20238;-67
2022/12/18 07:38:23;;;;;;;34.97;15.85;;;-3.00;89.00;;;;;;5091980;28;20193;-68
2022/12/18 07:40:53;;;;;;;33.20;13.88;;;-3.00;89.00;;;;;;5093879;28;20184;-68
2022/12/18 07:43:20;;;;;;;40.70;16.75;;;-2.90;88.80;;;;;;5092851;28;20189;-67
2022/12/18 07:45:51;;;;;;;34.55;17.00;;;-2.80;88.20;;;;;;5092778;28;20185;-68
2022/12/18 07:48:18;;;;;;;33.08;16.80;;;-2.80;86.70;;;;;;5092577;28;20312;-68
2022/12/18 07:50:47;;;;;;;36.60;16.20;;;-2.90;86.30;;;;;;5094055;28;20281;-68
2022/12/18 07:53:16;;;;;;;38.13;17.33;;;-2.90;87.10;;;;;;5092596;28;20193;-67
2022/12/18 07:55:48;;;;;;;34.75;16.08;;;-2.80;87.50;;;;;;5096501;28;20238;-68
2022/12/18 07:58:20;;;;;;;31.08;15.50;;;-2.70;87.80;;;;;;5092443;28;21491;-68
2022/12/18 08:00:48;;;;;;;31.40;15.50;;;-2.60;87.90;;;;;;5092818;28;20188;-69
2022/12/18 08:03:17;;;;;;;35.83;17.42;;;-2.60;87.30;;;;;;5092350;28;20220;-68
2022/12/18 08:05:45;;;;;;;30.55;15.85;;;-2.50;87.10;;;;;;5092637;28;20208;-68
2022/12/18 08:08:21;;;;;;;31.77;16.55;;;-2.50;86.70;;;;;;5092291;28;20217;-68
2022/12/18 08:10:50;;;;;;;27.13;15.90;;;-2.40;86.80;;;;;;5094747;28;20227;-68
2022/12/18 08:13:21;;;;;;;38.25;16.77;;;-2.40;86.60;;;;;;5092368;28;20193;-67
2022/12/18 08:15:58;;;;;;;28.50;15.07;;;-2.30;86.30;;;;;;5092392;28;20189;-68
2022/12/18 08:18:41;;;;;;;36.30;15.93;;;-2.30;85.90;;;;;;5092468;28;20208;-68
2022/12/18 08:21:14;;;;;;;28.05;13.95;;;-2.30;84.90;;;;;;5092063;28;20196;-68
2022/12/18 08:23:44;;;;;;;29.88;15.02;;;-2.20;85.20;;;;;;5096688;28;20230;-69
2022/12/18 08:26:14;;;;;;;32.97;16.73;;;-2.20;85.50;;;;;;5091758;28;20665;-68
2022/12/18 08:28:51;;;;;;;28.88;14.25;;;-2.10;85.60;;;;;;5092268;28;20686;-68
2022/12/18 08:31:19;;;;;;;35.08;14.65;;;-2.10;85.10;;;;;;5092181;28;20197;-68
2022/12/18 08:33:49;;;;;;;30.73;14.00;;;-2.00;85.70;;;;;;5092667;28;20181;-68
2022/12/18 08:36:17;;;;;;;29.63;14.95;;;-2.00;84.40;;;;;;5091445;28;20291;-68
2022/12/18 08:38:45;;;;;;;26.00;12.35;;;-1.90;84.10;;;;;;5096505;28;20189;-68
2022/12/18 08:41:17;;;;;;;27.92;15.25;;;-1.90;84.50;;;;;;5091875;28;20224;-68
2022/12/18 08:46:38;;;;;;;37.47;15.95;;;-1.80;83.90;;;;;;5110266;28;20203;-67
2022/12/18 08:49:07;;;;;;;34.35;15.27;;;-1.70;84.00;;;;;;5093225;28;20228;-68
2022/12/18 08:51:35;;;;;;;33.42;14.55;;;-1.60;84.70;;;;;;5091939;28;20662;-68
2022/12/18 08:54:02;;;;;;;35.30;13.93;;;-1.60;83.40;;;;;;5095295;28;20195;-68
2022/12/18 08:56:30;;;;;;;37.25;17.08;;;-1.70;82.80;;;;;;5099621;28;20662;-68
2022/12/18 08:58:59;;;;;;;31.30;16.00;;;-1.60;82.00;;;;;;5091568;28;20239;-68
2022/12/18 09:01:27;;;;;;;31.98;15.85;;;-1.60;82.20;;;;;;5109408;28;20204;-68
2022/12/18 09:03:59;;;;;;;33.38;17.10;;;-1.50;82.80;;;;;;5098294;28;20687;-68
2022/12/18 09:06:29;;;;;;;34.42;16.85;;;-1.50;82.30;;;;;;5090861;28;20193;-68
2022/12/18 09:08:56;;;;;;;32.42;16.02;;;-1.50;82.10;;;;;;5108763;28;20311;-68
2022/12/18 09:11:25;;;;;;;34.10;15.80;;;-1.40;83.20;;;;;;5107218;28;20188;-67
2022/12/18 09:13:53;;;;;;;30.33;14.82;;;-1.30;82.40;;;;;;5091436;28;20203;-67
2022/12/18 09:16:23;;;;;;;28.33;14.93;;;-1.20;82.00;;;;;;5091352;28;20247;-69
2022/12/18 09:18:51;;;;;;;35.35;15.25;;;-1.10;82.30;;;;;;5091445;28;20189;-68
2022/12/18 09:21:20;;;;;;;31.55;15.95;;;-1.10;81.60;;;;;;5094189;28;20189;-68
2022/12/18 09:23:51;;;;;;;35.22;17.67;;;-1.20;79.40;;;;;;5109157;28;20279;-67
2022/12/18 09:26:18;;;;;;;28.08;13.43;;;-1.20;80.00;;;;;;5103342;28;20185;-68
2022/12/18 09:28:45;;;;;;;24.60;13.52;;;-1.10;79.60;;;;;;5091072;28;20796;-68
2022/12/18 09:31:14;;;;;;;32.15;15.25;;;-1.10;79.00;;;;;;5091463;28;20284;-68
2022/12/18 09:33:44;;;;;;;24.40;13.35;;;-1.20;78.10;;;;;;5093413;28;20181;-68
2022/12/18 09:36:15;;;;;;;25.45;15.45;;;-1.10;79.30;;;;;;5091237;28;20711;-68
2022/12/18 09:38:47;;;;;;;26.05;13.32;;;-1.20;78.40;;;;;;5094854;28;20239;-68
2022/12/18 09:41:40;;;;;;;25.45;13.45;;;-1.20;78.00;;;;;;5103819;28;20583;-68
2022/12/18 09:44:21;;;;;;;29.40;14.38;;;-1.10;78.80;;;;;;5090957;28;20193;-67
2022/12/18 09:46:54;;;;;;;23.15;14.20;;;-1.00;79.40;;;;;;5091311;28;20661;-68
2022/12/18 09:49:26;;;;;;;33.55;16.55;;;-0.90;78.80;;;;;;5094966;28;20221;-68
2022/12/18 09:51:57;;;;;;;32.28;15.60;;;-0.90;77.40;;;;;;5094991;28;20280;-68
2022/12/18 09:54:26;;;;;;;26.98;15.02;;;-0.90;77.10;;;;;;5094525;28;20193;-69
2022/12/18 09:56:54;;;;;;;28.65;14.35;;;-0.90;76.80;;;;;;5097385;28;20666;-68
2022/12/18 09:59:26;;;;;;;23.83;13.60;;;-0.90;77.10;;;;;;5094762;28;20573;-68
2022/12/18 10:01:53;;;;;;;25.42;12.85;;;-0.90;76.10;;;;;;5094370;28;20669;-69
2022/12/18 10:04:22;;;;;;;28.90;14.70;;;-0.90;77.60;;;;;;5094112;28;20216;-68
2022/12/18 10:06:56;;;;;;;22.98;13.55;;;-0.90;75.60;;;;;;5103727;28;20239;-68
2022/12/18 10:09:35;;;;;;;29.52;14.80;;;-0.90;77.20;;;;;;5094504;28;20598;-68
2022/12/18 10:12:10;;;;;;;34.92;17.33;;;-0.90;76.90;;;;;;5094368;28;20559;-68
2022/12/18 10:14:44;;;;;;;26.70;15.00;;;-0.90;77.10;;;;;;5094539;28;20638;-69
2022/12/18 10:17:21;;;;;;;32.72;16.30;;;-0.80;76.10;;;;;;5074447;28;20572;-69
2022/12/18 10:19:55;;;;;;;32.13;16.85;;;-0.80;77.50;;;;;;5093091;28;20549;-69
2022/12/18 10:22:49;;;;;;;31.25;15.82;;;-0.80;77.30;;;;;;5091055;28;20189;-69
2022/12/18 10:25:26;;;;;;;26.13;13.70;;;-0.80;75.70;;;;;;5091283;28;20253;-69
2022/12/18 10:27:56;;;;;;;29.42;15.07;;;-0.80;76.10;;;;;;5095507;28;20227;-68
2022/12/18 10:30:26;;;;;;;30.80;15.10;;;-0.70;77.10;;;;;;5091238;28;20662;-67
2022/12/18 10:32:56;;;;;;;26.75;14.13;;;-0.70;77.20;;;;;;5093365;28;20562;-67
2022/12/18 10:35:26;;;;;;;25.63;12.60;;;-0.60;77.90;;;;;;5094400;28;20189;-67
2022/12/18 10:38:08;;;;;;;24.15;13.05;;;-0.50;77.30;;;;;;5094529;28;20647;-68
2022/12/18 10:40:50;;;;;;;29.60;14.07;;;-0.60;76.40;;;;;;5100409;28;20257;-68
2022/12/18 10:43:23;;;;;;;29.65;14.73;;;-0.60;77.50;;;;;;5094350;28;20185;-69
2022/12/18 10:46:03;;;;;;;23.20;12.93;;;-0.50;76.00;;;;;;5079974;28;20185;-69
2022/12/18 10:48:31;;;;;;;29.15;15.35;;;-0.40;74.80;;;;;;5093787;28;20213;-68
2022/12/18 10:51:01;;;;;;;23.70;12.40;;;-0.30;75.30;;;;;;5105699;28;20181;-68
2022/12/18 10:53:31;;;;;;;30.70;13.90;;;-0.20;73.90;;;;;;5093561;28;20238;-68
2022/12/18 10:56:00;;;;;;;27.48;13.73;;;-0.40;73.20;;;;;;5093749;28;20196;-68
2022/12/18 10:58:31;;;;;;;25.88;13.77;;;-0.60;72.80;;;;;;5093593;28;20224;-68
2022/12/18 11:01:10;;;;;;;22.27;12.32;;;-0.70;74.00;;;;;;5092965;28;20526;-68
2022/12/18 11:03:39;;;;;;;29.60;13.63;;;-0.80;73.90;;;;;;5093508;28;20195;-68
2022/12/18 11:06:11;;;;;;;25.95;13.80;;;-0.90;74.10;;;;;;5096739;28;20193;-68
2022/12/18 11:08:39;;;;;;;23.60;12.02;;;-0.90;74.50;;;;;;5093213;28;20220;-68
2022/12/18 11:11:19;;;;;;;28.80;15.07;;;-0.90;74.20;;;;;;5095936;28;20189;-67
2022/12/18 11:13:58;;;;;;;27.70;16.25;;;-0.80;75.30;;;;;;5092961;28;20204;-67
2022/12/18 11:16:27;;;;;;;21.95;11.45;;;-0.80;74.70;;;;;;5092899;28;20196;-68
2022/12/18 11:18:54;;;;;;;23.00;13.60;;;-0.80;74.20;;;;;;5093141;28;20280;-67
2022/12/18 11:21:24;;;;;;;26.52;11.75;;;-0.80;73.70;;;;;;5104864;28;20227;-67
2022/12/18 11:23:54;;;;;;;26.65;14.05;;;-0.80;74.30;;;;;;5101283;28;20192;-68
2022/12/18 11:26:22;;;;;;;23.92;13.25;;;-0.70;73.70;;;;;;5093953;28;20239;-68
2022/12/18 11:28:53;;;;;;;23.90;13.40;;;-0.80;73.30;;;;;;5099259;28;20208;-68
2022/12/18 11:31:28;;;;;;;26.80;13.40;;;-0.70;73.90;;;;;;5106343;28;20231;-68
2022/12/18 11:34:02;;;;;;;23.40;12.52;;;-0.60;74.80;;;;;;5103539;28;20231;-67
2022/12/18 11:36:37;;;;;;;28.08;13.70;;;-0.30;76.30;;;;;;5092454;28;20203;-68
2022/12/18 11:39:13;;;;;;;22.85;12.40;;;-0.20;75.00;;;;;;5102027;28;20199;-68
2022/12/18 11:44:40;;;;;;;22.83;12.27;;;0.00;74.00;;;;;;5092606;28;20558;-68
2022/12/18 11:47:15;;;;;;;24.05;13.20;;;0.10;73.40;;;;;;5092336;28;20189;-68
2022/12/18 11:49:51;;;;;;;22.10;11.23;;;0.10;71.60;;;;;;5094124;28;20208;-67
2022/12/18 11:52:23;;;;;;;22.52;12.68;;;0.10;71.30;;;;;;5093787;28;20258;-67
2022/12/18 11:54:54;;;;;;;24.25;12.55;;;0.10;71.40;;;;;;5094248;28;20281;-67
2022/12/18 11:57:34;;;;;;;21.20;11.43;;;0.20;72.00;;;;;;5093594;28;20569;-67
2022/12/18 12:00:12;;;;;;;18.42;11.35;;;0.30;72.50;;;;;;5110990;28;20195;-67
2022/12/18 12:02:59;;;;;;;25.40;13.15;;;0.40;71.60;;;;;;5094959;28;20180;-67
2022/12/18 12:05:42;;;;;;;26.10;14.98;;;0.50;69.90;;;;;;5075617;28;20221;-67
2022/12/18 12:08:29;;;;;;;29.52;13.40;;;0.30;68.10;;;;;;5096305;28;20201;-67
2022/12/18 12:11:09;;;;;;;24.10;11.65;;;0.20;69.60;;;;;;5091712;28;20200;-67
2022/12/18 12:13:48;;;;;;;20.33;11.77;;;0.20;68.90;;;;;;5093301;28;20188;-67
2022/12/18 12:16:23;;;;;;;18.30;11.43;;;0.30;69.60;;;;;;5094704;28;20181;-69
2022/12/18 12:19:03;;;;;;;21.08;12.05;;;0.30;70.50;;;;;;5094323;28;20207;-68
2022/12/18 12:21:42;;;;;;;22.15;13.43;;;0.40;71.00;;;;;;5092366;28;20188;-68
2022/12/18 12:24:31;;;;;;;32.00;17.55;;;0.40;69.90;;;;;;5092924;28;20590;-68
2022/12/18 12:27:06;;;;;;;25.63;15.45;;;0.40;70.40;;;;;;5095209;28;20223;-67
2022/12/18 12:29:46;;;;;;;27.42;14.50;;;0.40;70.80;;;;;;5112819;28;20211;-68
2022/12/18 12:32:26;;;;;;;28.20;13.80;;;0.50;70.50;;;;;;5113670;28;20587;-68
2022/12/18 12:35:08;;;;;;;30.35;15.40;;;0.50;70.20;;;;;;5113386;28;20192;-67
2022/12/18 12:37:48;;;;;;;25.65;12.38;;;0.40;69.80;;;;;;5113651;28;20515;-67
2022/12/18 12:40:19;;;;;;;24.15;13.57;;;0.40;69.80;;;;;;5113668;28;20196;-68
2022/12/18 12:45:40;;;;;;;26.27;13.98;;;0.40;70.70;;;;;;5110472;28;20267;-67
2022/12/18 12:48:16;;;;;;;23.63;14.40;;;0.40;70.80;;;;;;5112985;28;20587;-68
2022/12/18 12:50:46;;;;;;;28.90;14.23;;;0.50;71.00;;;;;;5113555;28;20188;-67
2022/12/18 12:53:22;;;;;;;26.95;15.10;;;0.50;71.10;;;;;;5113478;28;20189;-68
2022/12/18 12:55:51;;;;;;;24.42;13.30;;;0.50;71.50;;;;;;5113265;28;20706;-68
2022/12/18 12:58:27;;;;;;;25.17;12.48;;;0.40;69.60;;;;;;5113181;28;20188;-68
2022/12/18 13:01:01;;;;;;;23.52;13.45;;;0.30;70.00;;;;;;5113280;28;20192;-68